createdAt,value
2019-06-07T00:02:27.125Z,8.07
2019-06-07T00:04:59.128Z,7.10
2019-06-07T00:07:30.763Z,7.33
2019-06-07T00:10:02.627Z,7.43
2019-06-07T00:12:34.203Z,7.80
2019-06-07T00:15:11.710Z,7.47
2019-06-07T00:17:39.688Z,7.60
2019-06-07T00:20:15.121Z,6.73
2019-06-07T00:22:45.117Z,6.77
2019-06-07T00:25:22.866Z,7.00
2019-06-07T00:27:50.383Z,7.03
2019-06-07T00:30:50.717Z,6.60
2019-06-07T00:32:55.665Z,7.33
2019-06-07T00:35:27.481Z,7.43
2019-06-07T00:37:59.149Z,7.37
2019-06-07T00:40:32.191Z,8.17
2019-06-07T00:43:04.329Z,7.90
2019-06-07T00:45:36.359Z,7.80
2019-06-07T00:48:07.945Z,8.07
2019-06-07T00:50:39.530Z,7.53
2019-06-07T00:53:16.824Z,7.80
2019-06-07T00:55:44.435Z,7.50
2019-06-07T00:58:17.901Z,7.60
2019-06-07T01:00:49.556Z,8.10
2019-06-07T01:03:25.256Z,7.40
2019-06-07T01:05:54.889Z,7.07
2019-06-07T01:08:29.865Z,7.60
2019-06-07T01:10:59.877Z,7.63
2019-06-07T01:13:31.730Z,7.90
2019-06-07T01:16:03.537Z,8.60
2019-06-07T01:18:39.322Z,8.97
2019-06-07T01:21:08.709Z,8.80
2019-06-07T01:24:08.905Z,8.63
2019-06-07T01:26:16.782Z,9.07
2019-06-07T01:28:47.387Z,8.83
2019-06-07T01:31:21.051Z,8.87
2019-06-07T01:33:52.615Z,8.70
2019-06-07T01:36:28.888Z,8.93
2019-06-07T01:38:57.673Z,9.27
2019-06-07T01:41:30.850Z,9.40
2019-06-07T01:44:02.601Z,10.13
2019-06-07T01:46:34.395Z,9.23
2019-06-07T01:49:06.323Z,10.40
2019-06-07T01:51:37.922Z,9.77
2019-06-07T01:56:43.049Z,10.33
2019-06-07T01:59:14.707Z,10.70
2019-06-07T02:01:46.359Z,10.23
2019-06-07T02:04:21.554Z,10.57
2019-06-07T02:06:51.798Z,10.40
2019-06-07T02:09:25.877Z,9.60
2019-06-07T02:11:56.905Z,10.23
2019-06-07T02:14:30.609Z,9.93
2019-06-07T02:17:02.457Z,9.97
2019-06-07T02:19:34.265Z,9.83
2019-06-07T02:22:05.978Z,9.20
2019-06-07T02:24:37.685Z,8.73
2019-06-07T02:27:09.543Z,9.93
2019-06-07T02:29:41.220Z,9.40
2019-06-07T02:32:12.762Z,9.43
2019-06-07T02:34:44.311Z,8.70
2019-06-07T02:37:16.047Z,8.90
2019-06-07T02:39:47.808Z,8.23
2019-06-07T02:42:19.572Z,7.93
2019-06-07T02:44:51.130Z,8.13
2019-06-07T02:47:25.110Z,9.70
2019-06-07T02:49:56.441Z,8.27
2019-06-07T02:52:31.640Z,7.87
2019-06-07T02:55:01.322Z,8.37
2019-06-07T02:57:36.821Z,7.57
2019-06-07T03:00:39.965Z,8.23
2019-06-07T03:02:41.726Z,9.13
2019-06-07T03:05:15.060Z,9.50
2019-06-07T03:07:48.601Z,9.13
2019-06-07T03:10:20.449Z,7.90
2019-06-07T03:12:53.545Z,8.97
2019-06-07T03:15:37.414Z,9.10
2019-06-07T03:18:14.822Z,10.67
2019-06-07T03:21:04.612Z,10.40
2019-06-07T03:23:23.621Z,11.07
2019-06-07T03:25:56.212Z,10.20
2019-06-07T03:28:30.007Z,10.17
2019-06-07T03:31:03.146Z,10.37
2019-06-07T03:33:41.537Z,10.27
2019-06-07T03:36:23.275Z,10.67
2019-06-07T03:38:42.576Z,10.30
2019-06-07T03:41:14.223Z,10.90
2019-06-07T03:43:46.042Z,10.37
2019-06-07T03:46:17.771Z,11.13
2019-06-07T03:48:49.713Z,11.37
2019-06-07T03:51:25.366Z,11.73
2019-06-07T03:53:55.765Z,11.77
2019-06-07T03:56:28.317Z,11.03
2019-06-07T03:59:00.945Z,11.00
2019-06-07T04:01:34.731Z,10.90
2019-06-07T04:04:06.371Z,10.93
2019-06-07T04:06:41.916Z,11.80
2019-06-07T04:09:11.683Z,12.23
2019-06-07T04:11:43.834Z,12.20
2019-06-07T04:14:15.686Z,12.13
2019-06-07T04:16:47.551Z,12.13
2019-06-07T04:19:19.461Z,12.13
2019-06-07T04:21:51.179Z,12.17
2019-06-07T04:24:22.921Z,12.13
2019-06-07T04:26:54.759Z,12.80
2019-06-07T04:29:47.901Z,12.30
2019-06-07T04:31:59.771Z,12.70
2019-06-07T04:34:34.932Z,12.17
2019-06-07T04:37:05.171Z,13.37
2019-06-07T04:39:41.667Z,12.27
2019-06-07T04:42:11.819Z,12.90
2019-06-07T04:44:45.771Z,12.50
2019-06-07T04:47:19.285Z,12.17
2019-06-07T04:49:51.823Z,12.87
2019-06-07T04:52:24.737Z,12.90
2019-06-07T04:54:56.657Z,12.93
2019-06-07T04:57:32.006Z,13.50
2019-06-07T05:00:12.765Z,12.23
2019-06-07T05:02:38.593Z,11.20
2019-06-07T05:05:08.855Z,13.00
2019-06-07T05:07:46.101Z,12.40
2019-06-07T05:10:14.839Z,11.70
2019-06-07T05:12:46.649Z,13.43
2019-06-07T05:15:19.091Z,11.87
2019-06-07T05:17:51.220Z,11.90
2019-06-07T05:20:23.222Z,12.07
2019-06-07T05:22:55.146Z,11.87
2019-06-07T05:25:27.006Z,11.37
2019-06-07T05:27:58.819Z,11.47
2019-06-07T05:33:11.938Z,10.17
2019-06-07T05:35:43.932Z,11.13
2019-06-07T05:38:15.933Z,10.20
2019-06-07T05:40:48.911Z,10.30
2019-06-07T05:43:28.704Z,9.43
2019-06-07T05:46:00.597Z,9.90
2019-06-07T05:48:34.025Z,10.53
2019-06-07T05:51:06.847Z,10.20
2019-06-07T05:53:40.443Z,9.77
2019-06-07T05:56:13.304Z,10.60
2019-06-07T05:58:45.909Z,11.30
2019-06-07T06:03:51.310Z,10.27
2019-06-07T06:06:23.815Z,10.23
2019-06-07T06:09:12.890Z,10.27
2019-06-07T06:11:46.800Z,10.50
2019-06-07T06:14:07.985Z,11.60
2019-06-07T06:16:37.183Z,10.00
2019-06-07T06:19:09.238Z,9.07
2019-06-07T06:21:44.846Z,9.57
2019-06-07T06:24:14.767Z,9.47
2019-06-07T06:26:52.160Z,9.50
2019-06-07T06:29:20.708Z,8.43
2019-06-07T06:32:39.876Z,9.23
2019-06-07T06:34:26.577Z,9.20
2019-06-07T06:36:59.187Z,8.60
2019-06-07T06:39:32.416Z,8.10
2019-06-07T06:42:04.282Z,8.90
2019-06-07T06:44:36.023Z,9.47
2019-06-07T06:47:07.909Z,9.20
2019-06-07T06:49:40.392Z,7.60
2019-06-07T06:52:13.777Z,7.63
2019-06-07T06:54:53.564Z,7.93
2019-06-07T06:57:20.515Z,7.97
2019-06-07T06:59:52.920Z,7.70
2019-06-07T07:02:25.283Z,7.23
2019-06-07T07:04:57.240Z,8.07
2019-06-07T07:07:30.202Z,7.93
2019-06-07T07:10:03.312Z,7.23
2019-06-07T07:12:35.567Z,7.07
2019-06-07T07:15:08.709Z,8.10
2019-06-07T07:17:53.910Z,7.90
2019-06-07T07:20:14.548Z,7.20
2019-06-07T07:22:48.511Z,7.80
2019-06-07T07:25:20.233Z,7.40
2019-06-07T07:27:55.250Z,7.90
2019-06-07T07:30:43.159Z,8.68
2019-06-07T07:33:16.804Z,7.15
2019-06-07T07:36:14.024Z,6.30
2019-06-07T07:38:25.395Z,6.75
2019-06-07T07:41:13.362Z,6.33
2019-06-07T07:43:31.000Z,6.17
2019-06-07T07:46:25.940Z,6.50
2019-06-07T07:48:37.671Z,6.87
2019-06-07T07:51:09.609Z,6.73
2019-06-07T07:53:51.914Z,6.10
2019-06-07T07:56:16.209Z,5.97
2019-06-07T07:58:51.164Z,6.70
2019-06-07T08:01:22.155Z,5.37
2019-06-07T08:03:56.615Z,4.83
2019-06-07T08:06:29.208Z,5.83
2019-06-07T08:09:01.352Z,6.20
2019-06-07T08:11:33.381Z,5.78
2019-06-07T08:14:06.121Z,5.42
2019-06-07T08:16:38.311Z,5.67
2019-06-07T08:19:12.865Z,6.28
2019-06-07T08:21:44.106Z,5.53
2019-06-07T08:24:16.377Z,5.62
2019-06-07T08:27:13.128Z,5.87
2019-06-07T08:29:23.655Z,5.15
2019-06-07T08:31:58.703Z,5.35
2019-06-07T08:34:31.252Z,5.40
2019-06-07T08:37:03.591Z,4.97
2019-06-07T08:39:36.135Z,5.80
2019-06-07T08:42:17.744Z,5.78
2019-06-07T08:44:42.456Z,5.37
2019-06-07T08:47:20.361Z,5.28
2019-06-07T08:49:50.643Z,5.08
2019-06-07T08:52:22.193Z,6.40
2019-06-07T08:54:55.014Z,5.50
2019-06-07T08:57:27.769Z,5.60
2019-06-07T09:00:06.579Z,6.03
2019-06-07T09:02:33.748Z,5.22
2019-06-07T09:05:12.140Z,5.67
2019-06-07T09:07:39.479Z,5.78
2019-06-07T09:10:14.226Z,6.08
2019-06-07T09:12:45.329Z,5.80
2019-06-07T09:15:23.346Z,5.75
2019-06-07T09:20:36.740Z,5.60
2019-06-07T09:23:07.175Z,5.10
2019-06-07T09:25:52.195Z,4.92
2019-06-07T09:28:19.148Z,5.75
2019-06-07T09:30:44.357Z,5.62
2019-06-07T09:33:17.869Z,6.00
2019-06-07T09:35:50.217Z,5.58
2019-06-07T09:38:26.131Z,6.40
2019-06-07T09:40:57.649Z,6.33
2019-06-07T09:44:00.887Z,5.80
2019-06-07T09:46:11.051Z,6.07
2019-06-07T09:51:19.223Z,6.67
2019-06-07T09:53:45.210Z,6.17
2019-06-07T09:56:17.522Z,6.70
2019-06-07T09:58:52.792Z,6.10
2019-06-07T10:01:23.364Z,5.97
2019-06-07T10:03:55.490Z,6.80
2019-06-07T10:06:27.731Z,6.77
2019-06-07T10:10:04.743Z,6.50
2019-06-07T10:11:34.319Z,5.57
2019-06-07T10:14:06.924Z,5.43
2019-06-07T10:16:47.044Z,5.67
2019-06-07T10:19:13.125Z,5.33
2019-06-07T10:21:45.176Z,5.50
2019-06-07T10:24:17.747Z,6.17
2019-06-07T10:26:51.064Z,5.33
2019-06-07T10:29:23.375Z,5.60
2019-06-07T10:31:55.729Z,5.43
2019-06-07T10:34:27.791Z,5.43
2019-06-07T10:37:02.967Z,5.60
2019-06-07T10:39:47.578Z,5.70
2019-06-07T10:42:09.639Z,5.30
2019-06-07T10:44:41.443Z,5.23
2019-06-07T10:47:13.510Z,5.80
2019-06-07T10:49:45.993Z,7.03
2019-06-07T10:52:18.173Z,4.73
2019-06-07T10:54:50.349Z,4.63
2019-06-07T10:57:22.262Z,4.90
2019-06-07T10:59:54.415Z,4.47
2019-06-07T11:02:26.385Z,5.50
2019-06-07T11:04:58.666Z,5.07
2019-06-07T11:07:30.955Z,4.07
2019-06-07T11:10:10.712Z,4.17
2019-06-07T11:12:37.059Z,4.33
2019-06-07T11:15:11.026Z,4.73
2019-06-07T11:17:43.195Z,4.97
2019-06-07T11:20:15.279Z,4.63
2019-06-07T11:22:47.343Z,4.53
2019-06-07T11:25:19.604Z,4.80
2019-06-07T11:27:51.655Z,4.43
2019-06-07T11:30:24.133Z,4.80
2019-06-07T11:32:56.358Z,4.47
2019-06-07T11:35:28.915Z,5.10
2019-06-07T11:38:01.995Z,5.10
2019-06-07T11:40:35.945Z,3.77
2019-06-07T11:43:08.638Z,4.30
2019-06-07T11:45:40.730Z,5.50
2019-06-07T11:48:13.481Z,4.40
2019-06-07T11:50:45.688Z,5.93
2019-06-07T11:53:20.025Z,4.17
2019-06-07T11:55:51.867Z,3.97
2019-06-07T11:58:24.003Z,3.70
2019-06-07T12:00:56.049Z,3.90
2019-06-07T12:03:28.256Z,3.63
2019-06-07T12:06:00.853Z,4.60
2019-06-07T12:08:33.188Z,4.07
2019-06-07T12:11:05.291Z,3.80
2019-06-07T12:13:37.275Z,3.87
2019-06-07T12:16:09.396Z,3.83
2019-06-07T12:18:41.243Z,5.30
2019-06-07T12:21:13.644Z,4.27
2019-06-07T12:23:45.361Z,3.83
2019-06-07T12:26:18.625Z,6.00
2019-06-07T12:28:51.068Z,5.47
2019-06-07T12:31:22.938Z,3.90
2019-06-07T12:33:55.187Z,5.03
2019-06-07T12:36:27.388Z,5.40
2019-06-07T12:38:59.467Z,5.23
2019-06-07T12:41:31.759Z,4.20
2019-06-07T12:44:04.289Z,3.13
2019-06-07T12:46:36.844Z,3.60
2019-06-07T12:49:08.996Z,4.10
2019-06-07T12:51:41.411Z,4.20
2019-06-07T12:54:15.352Z,3.93
2019-06-07T12:56:47.363Z,3.97
2019-06-07T12:59:20.063Z,3.80
2019-06-07T13:01:52.384Z,3.97
2019-06-07T13:04:24.992Z,3.80
2019-06-07T13:06:57.337Z,4.10
2019-06-07T13:09:29.494Z,3.77
2019-06-07T13:12:01.996Z,3.63
2019-06-07T13:14:34.688Z,3.70
2019-06-07T13:17:07.099Z,3.47
2019-06-07T13:19:38.877Z,3.80
2019-06-07T13:22:10.999Z,4.30
2019-06-07T13:24:43.123Z,4.60
2019-06-07T13:27:16.132Z,4.10
2019-06-07T13:29:48.687Z,4.20
2019-06-07T13:32:21.806Z,4.93
2019-06-07T13:34:53.644Z,4.13
2019-06-07T13:37:26.015Z,4.30
2019-06-07T13:39:58.947Z,3.30
2019-06-07T13:42:31.433Z,3.60
2019-06-07T13:45:03.265Z,4.13
2019-06-07T13:47:35.628Z,3.23
2019-06-07T13:50:09.114Z,3.73
2019-06-07T13:52:42.124Z,4.00
2019-06-07T13:55:14.579Z,5.00
2019-06-07T13:57:47.148Z,3.97
2019-06-07T14:00:22.721Z,4.10
2019-06-07T14:02:54.475Z,4.50
2019-06-07T14:05:27.248Z,3.97
2019-06-07T14:07:59.513Z,3.87
2019-06-07T14:10:32.030Z,4.67
2019-06-07T14:13:04.137Z,4.03
2019-06-07T14:15:36.287Z,3.67
2019-06-07T14:18:08.953Z,3.80
2019-06-07T14:20:41.405Z,4.30
2019-06-07T14:23:14.902Z,4.10
2019-06-07T14:25:46.969Z,3.27
2019-06-07T14:28:19.023Z,3.90
2019-06-07T14:30:51.309Z,3.43
2019-06-07T14:33:26.947Z,3.97
2019-06-07T14:35:57.591Z,3.83
2019-06-07T14:38:33.800Z,5.13
2019-06-07T14:41:03.594Z,10.37
2019-06-07T14:43:36.083Z,5.67
2019-06-07T14:46:08.074Z,5.80
2019-06-07T14:48:40.165Z,8.07
2019-06-07T14:51:11.981Z,3.80
2019-06-07T14:53:43.711Z,4.23
2019-06-07T14:56:16.819Z,3.87
2019-06-07T14:58:49.559Z,5.30
2019-06-07T15:01:21.797Z,5.57
2019-06-07T15:03:53.953Z,5.40
2019-06-07T15:06:28.505Z,4.10
2019-06-07T15:09:00.507Z,5.10
2019-06-07T15:11:33.150Z,6.80
2019-06-07T15:14:05.341Z,4.33
2019-06-07T15:16:37.913Z,7.03
2019-06-07T15:19:10.205Z,4.70
2019-06-07T15:21:42.507Z,5.33
2019-06-07T15:24:14.837Z,5.30
2019-06-07T15:26:47.087Z,7.47
2019-06-07T15:29:19.351Z,5.40
2019-06-07T15:31:51.973Z,5.77
2019-06-07T15:34:24.705Z,4.30
2019-06-07T15:36:56.639Z,4.47
2019-06-07T15:39:28.458Z,4.23
2019-06-07T15:42:00.680Z,4.30
2019-06-07T15:44:33.323Z,4.03
2019-06-07T15:47:05.368Z,4.60
2019-06-07T15:49:38.228Z,5.20
2019-06-07T15:52:10.514Z,4.47
2019-06-07T15:54:42.695Z,5.60
2019-06-07T15:57:14.552Z,5.77
2019-06-07T15:59:47.099Z,4.87
2019-06-07T16:02:19.338Z,6.80
2019-06-07T16:04:51.245Z,11.67
2019-06-07T16:07:23.428Z,8.13
2019-06-07T16:09:55.504Z,7.77
2019-06-07T16:12:27.565Z,9.23
2019-06-07T16:14:59.753Z,8.47
2019-06-07T16:17:32.985Z,8.50
2019-06-07T16:20:06.288Z,10.57
2019-06-07T16:22:39.731Z,8.47
2019-06-07T16:25:13.156Z,7.70
2019-06-07T16:27:45.440Z,8.10
2019-06-07T16:30:17.485Z,9.10
2019-06-07T16:32:49.501Z,14.03
2019-06-07T16:35:22.129Z,8.33
2019-06-07T16:37:54.677Z,9.70
2019-06-07T16:40:26.599Z,9.13
2019-06-07T16:43:13.309Z,8.60
2019-06-07T16:45:32.500Z,10.10
2019-06-07T16:48:05.040Z,8.83
2019-06-07T16:50:37.201Z,9.17
2019-06-07T16:53:09.216Z,7.07
2019-06-07T16:55:42.630Z,10.10
2019-06-07T16:58:14.755Z,9.03
2019-06-07T17:00:48.614Z,8.80
2019-06-07T17:03:20.727Z,8.27
2019-06-07T17:05:52.623Z,8.60
2019-06-07T17:08:24.797Z,9.33
2019-06-07T17:10:56.825Z,8.20
2019-06-07T17:13:33.376Z,8.07
2019-06-07T17:16:03.158Z,7.83
2019-06-07T17:18:37.174Z,8.23
2019-06-07T17:21:09.031Z,8.20
2019-06-07T17:23:41.239Z,8.70
2019-06-07T17:26:13.261Z,8.13
2019-06-07T17:28:45.863Z,8.40
2019-06-07T17:31:18.078Z,8.60
2019-06-07T17:33:51.729Z,9.33
2019-06-07T17:36:23.745Z,7.97
2019-06-07T17:38:55.856Z,11.27
2019-06-07T17:41:27.894Z,9.10
2019-06-07T17:44:00.665Z,9.20
2019-06-07T17:46:33.061Z,11.33
2019-06-07T17:49:05.431Z,10.40
2019-06-07T17:51:37.448Z,9.20
2019-06-07T17:54:09.638Z,9.27
2019-06-07T17:56:42.353Z,8.17
2019-06-07T17:59:14.125Z,7.97
2019-06-07T18:02:07.087Z,10.47
2019-06-07T18:04:20.306Z,8.23
2019-06-07T18:06:53.611Z,7.57
2019-06-07T18:09:26.352Z,7.37
2019-06-07T18:11:58.449Z,8.37
2019-06-07T18:14:30.635Z,8.27
2019-06-07T18:17:02.788Z,7.70
2019-06-07T18:19:34.819Z,9.80
2019-06-07T18:22:06.605Z,10.20
2019-06-07T18:24:38.627Z,9.57
2019-06-07T18:27:10.737Z,7.23
2019-06-07T18:29:42.955Z,8.20
2019-06-07T18:32:15.019Z,7.90
2019-06-07T18:34:46.827Z,8.80
2019-06-07T18:37:18.983Z,9.43
2019-06-07T18:39:51.139Z,11.93
2019-06-07T18:42:23.239Z,8.67
2019-06-07T18:44:55.421Z,9.00
2019-06-07T18:47:27.824Z,9.07
2019-06-07T18:50:00.043Z,8.53
2019-06-07T18:52:34.686Z,7.80
2019-06-07T18:55:07.351Z,8.67
2019-06-07T18:57:39.707Z,9.77
2019-06-07T19:00:14.709Z,10.27
2019-06-07T19:02:47.721Z,8.63
2019-06-07T19:05:20.196Z,8.40
2019-06-07T19:07:52.730Z,8.67
2019-06-07T19:10:25.156Z,8.30
2019-06-07T19:12:57.409Z,8.37
2019-06-07T19:15:29.389Z,8.53
2019-06-07T19:18:01.316Z,11.00
2019-06-07T19:20:33.481Z,9.80
2019-06-07T19:23:05.444Z,8.90
2019-06-07T19:25:37.604Z,10.33
2019-06-07T19:28:09.699Z,10.97
2019-06-07T19:30:41.902Z,11.50
2019-06-07T19:33:13.945Z,10.57
2019-06-07T19:35:45.834Z,10.37
2019-06-07T19:38:17.922Z,9.80
2019-06-07T19:40:49.875Z,9.47
2019-06-07T19:43:21.726Z,10.83
2019-06-07T19:45:54.067Z,12.70
2019-06-07T19:48:25.960Z,11.73
2019-06-07T19:50:59.027Z,10.03
2019-06-07T19:53:31.286Z,10.20
2019-06-07T19:56:03.465Z,11.10
2019-06-07T19:58:35.530Z,9.97
2019-06-07T20:01:07.639Z,12.37
2019-06-07T20:03:40.158Z,12.33
2019-06-07T20:06:12.182Z,13.17
2019-06-07T20:08:43.917Z,13.90
2019-06-07T20:11:16.050Z,15.73
2019-06-07T20:13:48.111Z,14.30
2019-06-07T20:16:20.057Z,15.60
2019-06-07T20:18:52.087Z,15.73
2019-06-07T20:21:24.107Z,15.57
2019-06-07T20:23:56.801Z,16.17
2019-06-07T20:26:29.256Z,17.80
2019-06-07T20:29:01.407Z,16.23
2019-06-07T20:31:33.237Z,16.07
2019-06-07T20:34:05.780Z,17.37
2019-06-07T20:36:38.366Z,15.83
2019-06-07T20:39:10.304Z,16.97
2019-06-07T20:41:42.277Z,16.57
2019-06-07T20:44:14.357Z,17.90
2019-06-07T20:46:46.429Z,17.17
2019-06-07T20:49:18.312Z,19.17
2019-06-07T20:51:50.328Z,17.47
2019-06-07T20:54:22.148Z,19.47
2019-06-07T20:56:54.247Z,17.93
2019-06-07T20:59:26.444Z,18.03
2019-06-07T21:01:58.673Z,18.03
2019-06-07T21:04:31.088Z,18.00
2019-06-07T21:07:03.247Z,18.20
2019-06-07T21:09:35.445Z,19.07
2019-06-07T21:12:07.949Z,18.97
2019-06-07T21:14:39.929Z,20.93
2019-06-07T21:17:11.604Z,18.63
2019-06-07T21:19:43.601Z,20.50
2019-06-07T21:22:15.209Z,19.50
2019-06-07T21:24:46.849Z,18.50
2019-06-07T21:27:18.745Z,19.40
2019-06-07T21:29:50.673Z,24.33
2019-06-07T21:32:22.582Z,22.27
2019-06-07T21:34:54.627Z,18.93
2019-06-07T21:37:26.585Z,20.47
2019-06-07T21:39:58.543Z,19.73
2019-06-07T21:42:30.731Z,21.23
2019-06-07T21:45:05.375Z,19.10
2019-06-07T21:47:36.672Z,19.40
2019-06-07T21:50:10.786Z,18.80
2019-06-07T21:52:43.334Z,21.93
2019-06-07T22:06:03.869Z,21.57
2019-06-07T22:08:35.744Z,23.43
2019-06-07T22:11:08.238Z,20.40
2019-06-07T22:13:40.433Z,19.40
2019-06-07T22:16:26.220Z,19.83
2019-06-07T22:18:45.908Z,19.23
2019-06-07T22:21:18.099Z,18.53
2019-06-07T22:23:50.073Z,18.53
2019-06-07T22:26:22.027Z,17.47
2019-06-07T22:28:54.255Z,17.50
2019-06-07T22:31:26.221Z,17.73
2019-06-07T22:33:58.315Z,18.43
2019-06-07T22:36:30.420Z,18.13
2019-06-07T22:39:02.255Z,17.93
2019-06-07T22:41:34.277Z,18.87
2019-06-07T22:44:07.031Z,19.03
2019-06-07T22:46:38.773Z,18.40
2019-06-07T22:49:11.364Z,19.97
2019-06-07T22:51:43.472Z,18.93
2019-06-07T22:54:16.069Z,20.03
2019-06-07T22:56:59.383Z,19.83
2019-06-07T22:59:31.247Z,21.07
2019-06-07T23:02:03.182Z,18.67
2019-06-07T23:04:35.057Z,20.23
2019-06-07T23:07:08.722Z,21.10
2019-06-07T23:09:40.907Z,23.00
2019-06-07T23:12:13.184Z,22.50
2019-06-07T23:14:45.036Z,23.70
2019-06-07T23:17:17.827Z,23.13
2019-06-07T23:19:50.101Z,24.77
2019-06-07T23:22:22.073Z,23.60
2019-06-07T23:24:53.866Z,23.53
2019-06-07T23:27:25.811Z,24.23
2019-06-07T23:29:57.909Z,24.17
2019-06-07T23:32:29.813Z,22.77
2019-06-07T23:35:01.337Z,23.60
2019-06-07T23:37:33.537Z,23.17
2019-06-07T23:40:05.441Z,23.43
2019-06-07T23:42:37.554Z,22.57
2019-06-07T23:45:09.724Z,23.33
2019-06-07T23:47:41.336Z,22.97
2019-06-07T23:50:13.617Z,23.43
2019-06-07T23:52:45.382Z,22.50
2019-06-07T23:55:17.920Z,21.93
2019-06-07T23:57:49.755Z,22.00
